Current Weather

Dallas-Fort Worth Intl

Dallas-Fort Worth, Texas (KDFW)

Report from: Sunday, November 27, 2022 1:53 AM CST
Current time: Sunday, November 27, 2022 2:58 AM CST

Nearby weather
Weather history
Weather forecast

Temperature8.3°C (46.9°F)
Wind chill5.6°C (42.1°F)
Dew point6.1°C (43.0°F)
Winds 9 kts (4.6 m/s, 10.4 mph) Southwest (230°)
Visibility10 mi. (16.1 km)
Clouds Few clouds 5,000 ft. (1,524 m)
Altimeter29.75 in.Hg (1007 mB)
Relative humidity86 %
Density altitude-470 ft. (-143 m)
Sea-level pressure100.7 kPa (1007 mB, 29.74 in.Hg)
Remarks Automated weather observing station with precipitation discriminator
Flight conditions Visual Meteorological Conditions
Raw dataKDFW 270753Z 23009KT 10SM FEW050 08/06 A2975 RMK AO2 SLP071 T00830061
An error has occurred. This application may no longer respond until reloaded. Reload 🗙